Terminal Aerodrome Forecast
Issued by NWS Cleveland, OH

Home | Current Version | Previous Version | Text Only | Print | Product List | Glossary On
Versions: 1 2 3 4 5 6 7 8 9 10 11 12 13 14 15 16 17 18 19 20 21
109
FTUS41 KCLE 041401 AAA
TAFTOL
TAF AMD
KTOL 041401Z 0414/0512 18006KT P6SM BKN050 OVC100
     FM041700 22010KT 3SM -SHRA OVC025
     FM041900 30008KT 5SM -SHRA BR OVC012
     FM042200 34010KT 5SM BR SCT008 OVC012
     FM050300 34006KT 5SM BR OVC008
     FM051000 01008KT P6SM SCT008=

USA.gov is the U.S. government's official web portal to all federal, state and local government web resources and services.